Echola, Alabama
Current Conditions -  °F | °C
As of 10:53 AM on Thursday 23 Oct 2014 (Local Time) from KTCL Reporting Station
Clear Clear  
Wind Chill: 61°   Ceiling: Unl
Heat Index: 61°   Visibility: 10mi
Dew Point: 42°   Wind: 7mph
Humidity: 50%   Direction: 70°ENE
Pressure: 30.17"   Gusts: NA
Location:  33.34°N, 87.79°W
Report Text: KTCL 231553Z 07006KT 10SM CLR 16/06 A3017 RMK AO2 SLP216 T01610056
Loading
Personal Weather Stations






























Interactive Weather Map
Tropical Storm Tracking
New forecast layout! Learn more

10-Day Weather Forecast

Advertisements
Track Severe Weather on mobile